Hauptseite
METAR-TAF:

METAR-TAF

Flughäfen :

La Chaux-de-Fonds, Schweiz

Flugplatz Les Eplatures

Breite: 47-05-03N, Länge: 006-47-37E, Höhe: 1027 m

Beobachtung

Neuester Wetterbericht von vor 6 Minuten, um 05:50 UTC
Wind 4 kt aus Süd/Südwest, variierte zwischen Süd und West/Südwest
Temperatur 6°C
Luftfeuchtigkeit 93%
Luftdruck 1020 hPa
Sichtweite 10 km oder mehr
Durchbrochene Bewölkung in der Höhe von 800 ft

METAR: LSGC 260550Z 21004KT 180V250 9999 BKN008 06/05 Q1020

Zeit: 07:56 (05:56 UTC)

Prognose

Neuester Wetterbericht von vor 31 Minuten, um 05:25 UTC
Gültige Prognose vom 26 um 06 UTC bis 26 um 15 UTC
Wind 7 kt aus West/Nordwest
Sichtweite 10 km oder mehr
Durchbrochene Bewölkung in der Höhe von 1500 ft

TAF: LSGC 260525Z 2606/2615 29007KT 9999 BKN015

Wetterbeobachtungen und Prognosen von mehr als 4000 Flughäfen (METAR und TAF Bericht).

Die verfügbaren Stationen werden durch gelbe und rote Markierungen auf der Karte dargestellt.

Führen Sie die Maus auf sie, um den Namen der Station zu sehen.

Darauf klicken, um die Beobachtung von Wetterbeobachtungen und Prognosen zu sehen.

Um die Karte zu ändern : klicken Sie auf den grünen Tasten mit einem schwarzen Kreuz Zum Vergrößern, auf den grünen Button mit einem Gedankenstrich zu verkleinern, oder auf die grünen Pfeile für benachbarte Karten.


METAR-TAF: